地図

経路データ

SID SEASON NUMBER BASIN SUBBASIN NAME ISO_TIME NATURE LAT LON WMO_WIND WMO_PRES WMO_AGENCY TRACK_TYPE DIST2LAND LANDFALL IFLAG USA_AGENCY USA_ATCF_ID USA_LAT USA_LON USA_RECORD USA_STATUS USA_WIND USA_PRES USA_SSHS USA_R34_NE USA_R34_SE USA_R34_SW USA_R34_NW USA_R50_NE USA_R50_SE USA_R50_SW USA_R50_NW USA_R64_NE USA_R64_SE USA_R64_SW USA_R64_NW USA_POCI USA_ROCI USA_RMW USA_EYE TOKYO_LAT TOKYO_LON TOKYO_GRADE TOKYO_WIND TOKYO_PRES TOKYO_R50_DIR TOKYO_R50_LONG TOKYO_R50_SHORT TOKYO_R30_DIR TOKYO_R30_LONG TOKYO_R30_SHORT TOKYO_LAND CMA_LAT CMA_LON CMA_CAT CMA_WIND CMA_PRES HKO_LAT HKO_LON HKO_CAT HKO_WIND HKO_PRES NEWDELHI_LAT NEWDELHI_LON NEWDELHI_GRADE NEWDELHI_WIND NEWDELHI_PRES NEWDELHI_CI NEWDELHI_DP NEWDELHI_POCI REUNION_LAT REUNION_LON REUNION_TYPE REUNION_WIND REUNION_PRES REUNION_TNUM REUNION_CI REUNION_RMW REUNION_R34_NE REUNION_R34_SE REUNION_R34_SW REUNION_R34_NW REUNION_R50_NE REUNION_R50_SE REUNION_R50_SW REUNION_R50_NW REUNION_R64_NE REUNION_R64_SE REUNION_R64_SW REUNION_R64_NW BOM_LAT BOM_LON BOM_TYPE BOM_WIND BOM_PRES BOM_TNUM BOM_CI BOM_RMW BOM_R34_NE BOM_R34_SE BOM_R34_SW BOM_R34_NW BOM_R50_NE BOM_R50_SE BOM_R50_SW BOM_R50_NW BOM_R64_NE BOM_R64_SE BOM_R64_SW BOM_R64_NW BOM_ROCI BOM_POCI BOM_EYE BOM_POS_METHOD BOM_PRES_METHOD NADI_LAT NADI_LON NADI_CAT NADI_WIND NADI_PRES WELLINGTON_LAT WELLINGTON_LON WELLINGTON_WIND WELLINGTON_PRES DS824_LAT DS824_LON DS824_STAGE DS824_WIND DS824_PRES TD9636_LAT TD9636_LON TD9636_STAGE TD9636_WIND TD9636_PRES TD9635_LAT TD9635_LON TD9635_WIND TD9635_PRES TD9635_ROCI NEUMANN_LAT NEUMANN_LON NEUMANN_CLASS NEUMANN_WIND NEUMANN_PRES MLC_LAT MLC_LON MLC_CLASS MLC_WIND MLC_PRES USA_GUST BOM_GUST BOM_GUST_PER REUNION_GUST REUNION_GUST_PER USA_SEAHGT USA_SEARAD_NE USA_SEARAD_SE USA_SEARAD_SW USA_SEARAD_NW STORM_SPEED STORM_DIR
1982227N09140 1982 60 WP MM FAYE 1982-08-15 00:00:00 NR 8.60000 140.400 main 1165 1165 __________O___ -1 8.60000 140.400 0 5 328
1982227N09140 1982 60 WP MM FAYE 1982-08-15 03:00:00 NR 8.80879 140.265 main 1181 1176 __________P___ -1 8.80879 140.265 0 5 326
1982227N09140 1982 60 WP MM FAYE 1982-08-15 06:00:00 NR 9.01436 140.121 main 1192 1192 __________P___ -1 9.01436 140.121 0 5 323
1982227N09140 1982 60 WP MM FAYE 1982-08-15 09:00:00 NR 9.21351 139.957 main 1209 1205 __________P___ -1 9.21351 139.957 0 5 318
1982227N09140 1982 60 WP MM FAYE 1982-08-15 12:00:00 NR 9.40304 139.763 main 1221 1218 __________P___ -1 9.40304 139.763 0 6 311
1982227N09140 1982 60 WP MM FAYE 1982-08-15 15:00:00 NR 9.57974 139.531 main 1231 1228 __________P___ -1 9.57974 139.531 0 6 304
1982227N09140 1982 60 WP MM FAYE 1982-08-15 18:00:00 NR 9.74035 139.249 main 1231 1231 __________P___ -1 9.74035 139.249 0 7 296
1982227N09140 1982 60 WP MM FAYE 1982-08-15 21:00:00 NR 9.88156 138.909 main 1242 1236 __________P___ -1 9.88156 138.909 0 8 289
1982227N09140 1982 60 WP MM FAYE 1982-08-16 00:00:00 NR 10.0000 138.500 main 1241 1235 __________O___ -1 10.0000 138.500 0 9 284
1982227N09140 1982 60 WP MM FAYE 1982-08-16 03:00:00 NR 10.0941 138.019 main 1238 1230 __________P___ -1 10.0941 138.019 0 10 280
1982227N09140 1982 60 WP MM FAYE 1982-08-16 06:00:00 NR 10.1700 137.490 main 1230 1177 __________P___ -1 10.1700 137.490 0 11 278
1982227N09140 1982 60 WP MM FAYE 1982-08-16 09:00:00 NR 10.2359 136.940 main 1166 1115 __________P___ -1 10.2359 136.940 0 11 277
1982227N09140 1982 60 WP MM FAYE 1982-08-16 12:00:00 NR 10.3000 136.400 main 1115 1065 __________O___ -1 10.3000 136.400 0 10 278
1982227N09140 1982 60 WP MM FAYE 1982-08-16 15:00:00 NR 10.3829 135.903 main 1065 1016 __________P___ -1 10.3829 135.903 0 10 280
1982227N09140 1982 60 WP MM FAYE 1982-08-16 18:00:00 NR 10.4647 135.420 main 1016 973 __________P___ -1 10.4647 135.420 0 9 279
1982227N09140 1982 60 WP MM FAYE 1982-08-16 21:00:00 NR 10.5392 134.953 main 973 921 __________P___ -1 10.5392 134.953 0 9 279
1982227N09140 1982 60 WP MM FAYE 1982-08-17 00:00:00 NR 10.6000 134.500 main 921 879 __________O___ -1 10.6000 134.500 0 9 277
1982227N09140 1982 60 WP MM FAYE 1982-08-17 03:00:00 NR 10.6389 134.081 main 879 839 __________P___ -1 10.6389 134.081 0 8 275
1982227N09140 1982 60 WP MM FAYE 1982-08-17 06:00:00 NR 10.6643 133.672 main 839 796 __________P___ -1 10.6643 133.672 0 8 273
1982227N09140 1982 60 WP MM FAYE 1982-08-17 09:00:00 NR 10.6826 133.253 main 796 742 __________P___ -1 10.6826 133.253 0 9 272
1982227N09140 1982 60 WP MM FAYE 1982-08-17 12:00:00 NR 10.7000 132.800 main 742 689 __________O___ -1 10.7000 132.800 0 10 273
1982227N09140 1982 60 WP MM FAYE 1982-08-17 15:00:00 NR 10.7293 132.262 main 689 628 __________P___ -1 10.7293 132.262 0 11 273
1982227N09140 1982 60 WP MM FAYE 1982-08-17 18:00:00 NR 10.7579 131.693 main 628 576 __________P___ -1 10.7579 131.693 0 11 273
1982227N09140 1982 60 WP MM FAYE 1982-08-17 21:00:00 NR 10.7825 131.127 main 566 514 __________P___ -1 10.7825 131.127 0 11 272
1982227N09140 1982 60 WP MM FAYE 1982-08-18 00:00:00 NR 10.8000 130.600 main 514 473 __________O___ -1 10.8000 130.600 0 10 271
1982227N09140 1982 60 WP MM FAYE 1982-08-18 03:00:00 NR 10.8067 130.157 main 473 433 __________P___ -1 10.8067 130.157 0 8 270
1982227N09140 1982 60 WP MM FAYE 1982-08-18 06:00:00 NR 10.8069 129.755 main 433 393 __________P___ -1 10.8069 129.755 0 8 270
1982227N09140 1982 60 WP MM FAYE 1982-08-18 09:00:00 NR 10.8037 129.376 main 393 350 __________P___ -1 10.8037 129.376 0 7 269
1982227N09140 1982 60 WP MM FAYE 1982-08-18 12:00:00 NR 10.8000 129.000 main 350 306 __________O___ -1 10.8000 129.000 0 8 269
1982227N09140 1982 60 WP MM FAYE 1982-08-18 15:00:00 NR 10.7918 128.592 main 306 263 __________P___ -1 10.7918 128.592 0 8 269
1982227N09140 1982 60 WP MM FAYE 1982-08-18 18:00:00 NR 10.7849 128.185 main 263 219 __________P___ -1 10.7849 128.185 0 8 270
1982227N09140 1982 60 WP MM FAYE 1982-08-18 21:00:00 NR 10.7856 127.786 main 219 185 __________P___ -1 10.7856 127.786 0 8 288
1982227N09140 1982 60 WP MM FAYE 1982-08-19 00:00:00 TS 11.0200 127.460 main 185 143 __O_______O___ -1 11.9000 127.700 0 19 1005 10.8000 127.400 1 8 300
1982227N09140 1982 60 WP MM FAYE 1982-08-19 03:00:00 TS 11.2002 127.053 main 143 103 __P_______P___ -1 11.9379 127.105 0 19 1005 10.8314 127.028 1 9 290
1982227N09140 1982 60 WP MM FAYE 1982-08-19 06:00:00 TS 11.3156 126.640 main 93 64 __O_______P___ -1 11.9000 126.600 0 19 1005 10.8773 126.670 1 8 280
1982227N09140 1982 60 WP MM FAYE 1982-08-19 09:00:00 TS 11.3359 126.281 main 64 39 __P_______P___ -1 11.7373 126.235 0 19 1005 10.9346 126.328 1 7 264
1982227N09140 1982 60 WP MM FAYE 1982-08-19 12:00:00 TS 11.2500 125.950 main 39 0 __O_______O___ -1 11.5000 125.900 0 19 1005 11.0000 126.000 1 7 253
1982227N09140 1982 60 WP MM FAYE 1982-08-19 15:00:00 TS 11.1263 125.595 main 10 0 __P_______P___ -1 11.1975 125.472 0 19 1005 11.0552 125.718 1 7 255
1982227N09140 1982 60 WP MM FAYE 1982-08-19 18:00:00 TS 11.0597 125.222 main 0 0 __O_______P___ -1 11.0000 125.000 0 19 1005 11.1194 125.445 1 8 271
1982227N09140 1982 60 WP MM FAYE 1982-08-19 21:00:00 TS 11.1444 124.821 main 0 0 __P_______P___ -1 11.0900 124.493 0 19 1005 11.1989 125.149 1 9 291
1982227N09140 1982 60 WP MM FAYE 1982-08-20 00:00:00 TS 11.3700 124.400 1004 tokyo main 0 0 OOO_______O___ jtwc_wp WP151982 11.3000 124.800 20 -1 12.0000 124.000 2 1004 0 0 0 11.3000 124.000 0 19 1005 11.3000 124.800 1 20 10 295
1982227N09140 1982 60 WP MM FAYE 1982-08-20 03:00:00 TS 11.5517 123.940 main 24 22 PPP_______P___ WP151982 11.5202 124.303 22 -1 12.0001 123.512 2 1004 0 0 11.4500 123.562 0 19 1005 11.4449 124.350 1 21 10 290
1982227N09140 1982 60 WP MM FAYE 1982-08-20 06:00:00 TS 11.7094 123.470 1004 tokyo main 31 31 OOO_______P___ jtwc_wp WP151982 11.7000 123.800 25 -1 12.0000 123.000 2 1004 0 0 0 11.6000 123.200 0 19 1005 11.6078 123.845 1 22 10 288
1982227N09140 1982 60 WP MM FAYE 1982-08-20 09:00:00 TS 11.8404 123.011 main 35 31 PPP_______P___ WP151982 11.8149 123.292 25 -1 12.0001 122.463 2 1004 0 0 11.7797 122.973 0 19 1005 11.7668 123.318 1 23 9 284
1982227N09140 1982 60 WP MM FAYE 1982-08-20 12:00:00 TS 11.9250 122.575 1004 tokyo main 31 15 OOO_______O___ jtwc_wp WP151982 11.9000 122.800 25 -1 12.0000 122.000 2 1004 0 0 0 11.9000 122.700 0 19 1005 11.9000 122.800 1 25 9 278
1982227N09140 1982 60 WP MM FAYE 1982-08-20 15:00:00 TS 11.9590 122.136 main 22 22 PPP_______P___ WP151982 12.0149 122.343 27 -1 11.9998 121.713 2 1004 0 0 11.8427 122.172 0 21 1004 11.9786 122.315 1 26 8 274
1982227N09140 1982 60 WP MM FAYE 1982-08-20 18:00:00 TS 11.9825 121.712 1004 tokyo main 24 24 OOO_______P___ jtwc_wp WP151982 12.1000 121.900 30 -1 12.0000 121.500 2 1004 0 0 0 11.8000 121.600 1 23 1004 12.0299 121.847 1 27 8 276
1982227N09140 1982 60 WP MM FAYE 1982-08-20 21:00:00 TS 12.0453 121.315 main 24 11 PPP_______P___ WP151982 12.1075 121.435 30 -1 12.0000 121.243 2 1004 0 0 12.0073 121.178 1 26 1003 12.0662 121.406 1 28 8 279
1982227N09140 1982 60 WP MM FAYE 1982-08-21 00:00:00 TS 12.1000 120.950 1004 tokyo main 15 15 OOO_______O___ jtwc_wp WP151982 12.1000 121.000 30 -1 12.0000 121.000 2 1004 0 0 0 12.2000 120.800 1 29 1002 12.1000 121.000 1 30 7 275
1982227N09140 1982 60 WP MM FAYE 1982-08-21 03:00:00 TS 12.1069 120.597 main 54 54 PPP_______P___ WP151982 12.1424 120.628 32 -1 12.0000 120.785 2 1004 0 0 12.1150 120.385 1 29 1002 12.1702 120.590 1 31 7 271
1982227N09140 1982 60 WP MM FAYE 1982-08-21 06:00:00 TS 12.1088 120.264 1004 tokyo main 83 83 OOOO______P___ jtwc_wp WP151982 12.2000 120.300 35 0 12.0000 120.600 2 1004 0 0 0 12.0000 120.000 1 29 1002 12.1000 120.000 TD 25 1002 12.2375 120.223 1 32 6 275
1982227N09140 1982 60 WP MM FAYE 1982-08-21 09:00:00 TS 12.1544 119.986 main 103 103 PPPP______P___ WP151982 12.2800 119.978 35 0 12.0000 120.450 2 1004 0 0 12.0850 119.640 1 29 1002 12.0875 119.900 TD 25 1002 12.2859 119.919 1 33 5 279
1982227N09140 1982 60 WP MM FAYE 1982-08-21 12:00:00 TS 12.1842 119.779 1004 tokyo main 103 100 OOOO______O___ jtwc_wp WP151982 12.3000 119.700 35 0 12.0000 120.300 2 1004 0 0 0 12.2000 119.400 1 29 1002 12.1000 119.800 TD 25 1002 12.3000 119.700 2 35 3 269
1982227N09140 1982 60 WP MM FAYE 1982-08-21 15:00:00 TS 12.1509 119.638 main 100 89 PPPP______P___ WP151982 12.1575 119.432 37 0 12.0000 120.108 2 1004 0 0 12.2149 119.355 1 29 1001 12.1500 119.700 TD 27 1001 12.2323 119.597 2 37 2 251
1982227N09140 1982 60 WP MM FAYE 1982-08-21 18:00:00 TS 12.1069 119.555 1004 tokyo main 89 89 OOOO______P___ jtwc_wp WP151982 12.0000 119.300 40 0 12.0000 119.900 2 1004 0 0 0 12.2000 119.400 1 29 1000 12.2000 119.600 TD 30 1000 12.1347 119.575 2 40 1 237
1982227N09140 1982 60 WP MM FAYE 1982-08-21 21:00:00 TS 12.0740 119.519 main 89 89 PPPP______P___ WP151982 11.9625 119.428 42 0 11.9850 119.685 2 1004 0 0 12.1775 119.400 1 29 999 12.2000 119.492 TD 30 999 12.0449 119.591 2 42 1 241
1982227N09140 1982 60 WP MM FAYE 1982-08-22 00:00:00 TS 12.0800 119.500 1004 tokyo main 89 89 OOOO______O___ jtwc_wp WP151982 12.0000 119.600 45 0 12.0000 119.500 2 1004 0 0 0 12.2000 119.400 1 29 998 12.2000 119.400 TD 30 998 12.0000 119.600 2 45 1 321
1982227N09140 1982 60 WP MM FAYE 1982-08-22 03:00:00 TS 12.1611 119.453 main 100 100 PPPP______P___ WP151982 12.0850 119.588 50 0 12.0925 119.378 2 1000 0 0 12.3275 119.407 1 33 994 12.2425 119.343 TD 35 996 12.0578 119.548 2 50 2 331
1982227N09140 1982 60 WP MM FAYE 1982-08-22 06:00:00 TS 12.2725 119.396 996 tokyo main 112 112 OOOO______P___ jtwc_wp WP151982 12.2000 119.500 55 0 12.2000 119.300 2 996 0 0 0 12.5000 119.400 2 38 990 12.3000 119.300 TS 40 995 12.1625 119.480 2 55 2 332
1982227N09140 1982 60 WP MM FAYE 1982-08-22 09:00:00 TS 12.3732 119.337 main 125 125 PPPP______P___ WP151982 12.3075 119.408 60 0 12.2500 119.250 2 988 0 0 12.6725 119.380 2 43 986 12.3500 119.250 TS 47 989 12.2859 119.398 2 60 2 326
1982227N09140 1982 60 WP MM FAYE 1982-08-22 12:00:00 TS 12.4600 119.260 45 980 tokyo main 136 136 OOOO______O___ jtwc_wp WP151982 12.4000 119.300 65 1 12.3000 119.200 3 45 980 0 9 100 100 0 12.8000 119.300 3 48 983 12.4000 119.200 STS 55 984 12.4000 119.300 4 65 2 308
1982227N09140 1982 60 WP MM FAYE 1982-08-22 15:00:00 TS 12.5204 119.148 main 141 141 PPPP______P___ WP151982 12.4575 119.207 67 1 12.4000 119.108 3 47 975 0 9 100 100 12.8226 119.092 3 53 979 12.4575 119.158 STS 57 979 12.4644 119.173 4 67 3 294
1982227N09140 1982 60 WP MM FAYE 1982-08-22 18:00:00 TS 12.5630 119.027 50 970 tokyo main 155 155 OOOO______P___ jtwc_wp WP151982 12.5000 119.100 70 1 12.5000 119.000 4 50 970 0 9 100 100 0 12.8000 118.900 3 58 975 12.5000 119.100 STS 60 975 12.5151 119.035 4 70 2 288
1982227N09140 1982 60 WP MM FAYE 1982-08-22 21:00:00 TS 12.5946 118.923 main 159 159 PPPP______P___ WP151982 12.5575 118.943 72 1 12.5575 118.893 4 60 970 0 9 100 100 12.8000 118.878 3 58 972 12.5000 119.000 STS 62 972 12.5582 118.904 4 72 2 287
1982227N09140 1982 60 WP MM FAYE 1982-08-23 00:00:00 TS 12.6200 118.840 70 970 tokyo main 164 164 OOOO______O___ jtwc_wp WP151982 12.6000 118.800 75 1 12.6000 118.800 5 70 970 9 35 35 9 100 100 0 12.8000 118.900 3 58 970 12.5000 118.900 T 65 970 12.6000 118.800 4 75 2 289
1982227N09140 1982 60 WP MM FAYE 1982-08-23 03:00:00 TS 12.6422 118.778 main 164 164 PPPP______P___ WP151982 12.5925 118.727 77 1 12.6500 118.743 5 70 965 9 37 37 9 112 112 12.8000 118.850 3 63 967 12.5350 118.850 T 67 967 12.6337 118.718 4 77 1 297
1982227N09140 1982 60 WP MM FAYE 1982-08-23 06:00:00 TS 12.6740 118.734 70 960 tokyo main 179 179 OOOO______P___ jtwc_wp WP151982 12.6000 118.700 80 1 12.7000 118.700 5 70 960 9 40 40 9 125 125 0 12.8000 118.800 4 68 965 12.6000 118.800 T 70 965 12.6699 118.668 4 80 1 312
1982227N09140 1982 60 WP MM FAYE 1982-08-23 09:00:00 TS 12.7297 118.678 main 179 179 PPPP______P___ WP151982 12.6925 118.670 82 1 12.7500 118.613 5 75 960 9 57 57 9 125 125 12.7850 118.778 4 68 963 12.7000 118.670 T 72 964 12.7212 118.659 4 82 1 337
1982227N09140 1982 60 WP MM FAYE 1982-08-23 12:00:00 TS 12.8000 118.680 80 960 tokyo main 185 175 OOOO______O___ jtwc_wp WP151982 12.8000 118.700 85 2 12.8000 118.600 5 80 960 9 75 75 9 125 125 0 12.8000 118.800 4 68 962 12.8000 118.600 T 75 963 12.8000 118.700 4 85 2 43
1982227N09140 1982 60 WP MM FAYE 1982-08-23 15:00:00 TS 12.8526 118.795 main 171 151 PPPP______P___ WP151982 12.8275 118.828 85 2 12.8275 118.755 5 80 960 9 75 75 9 125 125 12.8775 118.878 4 72 961 12.8500 118.705 T 77 961 12.8807 118.808 4 85 3 64
1982227N09140 1982 60 WP MM FAYE 1982-08-23 18:00:00 TS 12.9390 118.973 80 960 tokyo main 151 134 OOOO______P___ jtwc_wp WP151982 12.9000 119.000 85 2 12.9000 119.000 5 80 960 9 75 75 9 125 125 0 13.0000 119.000 4 77 961 12.9000 118.900 T 80 960 12.9951 118.963 4 85 4 57
1982227N09140 1982 60 WP MM FAYE 1982-08-23 21:00:00 TS 13.0779 119.159 main 123 108 PPPP______P___ WP151982 13.1050 119.150 85 2 13.0700 119.265 5 75 960 9 75 75 9 122 122 13.1050 119.150 4 77 960 12.9475 119.093 T 80 960 13.1620 119.136 4 85 5 45
1982227N09140 1982 60 WP MM FAYE 1982-08-24 00:00:00 TS 13.3000 119.340 70 960 tokyo main 108 87 OOOO______O___ jtwc_wp WP151982 13.4000 119.300 85 2 13.3000 119.500 5 70 960 9 75 75 9 120 120 0 13.3000 119.300 4 77 960 13.1000 119.300 T 80 960 13.4000 119.300 4 85 6 31
1982227N09140 1982 60 WP MM FAYE 1982-08-24 03:00:00 TS 13.6063 119.489 main 89 87 PPPP______P___ WP151982 13.7200 119.465 87 2 13.5050 119.630 5 70 960 9 75 75 9 122 122 13.6475 119.408 4 72 960 13.4550 119.530 T 80 960 13.7037 119.410 4 85 7 20
1982227N09140 1982 60 WP MM FAYE 1982-08-24 06:00:00 TS 13.9960 119.602 70 960 tokyo main 101 62 OOOO______P___ jtwc_wp WP151982 14.1000 119.600 90 2 13.8000 119.700 5 70 960 9 75 75 9 125 125 0 14.1000 119.500 4 68 960 13.9000 119.700 T 80 960 14.0800 119.508 4 85 9 12
1982227N09140 1982 60 WP MM FAYE 1982-08-24 09:00:00 TS 14.4367 119.677 main 62 43 PPPP______P___ WP151982 14.5350 119.665 87 2 14.2625 119.772 5 70 965 9 75 75 9 125 125 14.6000 119.615 4 68 962 14.2700 119.730 T 80 960 14.5163 119.601 4 85 9 7
1982227N09140 1982 60 WP MM FAYE 1982-08-24 12:00:00 TS 14.9200 119.720 70 970 tokyo main 43 21 OOOO______O___ jtwc_wp WP151982 15.0000 119.700 85 2 14.8000 119.800 5 70 970 9 75 75 9 125 125 0 15.1000 119.700 4 68 965 14.7000 119.700 T 80 960 15.0000 119.700 4 85 10 4
1982227N09140 1982 60 WP MM FAYE 1982-08-24 15:00:00 TS 15.3951 119.732 main 21 0 PPPP______P___ WP151982 15.4200 119.728 80 1 15.2850 119.743 5 70 970 9 75 75 9 125 125 15.4774 119.670 4 63 967 15.2700 119.670 T 75 965 15.5232 119.850 4 80 10 3
1982227N09140 1982 60 WP MM FAYE 1982-08-24 18:00:00 TS 15.9170 119.780 70 970 tokyo main 0 0 OOOO______P___ jtwc_wp WP151982 15.9000 119.800 75 1 15.8000 119.700 5 70 970 9 75 75 9 125 125 0 15.9000 119.700 3 58 970 15.9000 119.700 T 70 970 16.0851 120.001 4 75 12 12
1982227N09140 1982 60 WP MM FAYE 1982-08-24 21:00:00 TS 16.5265 119.976 main 24 24 PPPP______P___ WP151982 16.5426 120.037 70 1 16.4000 119.792 5 65 975 9 67 67 9 125 125 16.5277 120.014 3 53 973 16.5076 119.907 T 65 975 16.6545 120.128 4 70 13 16
1982227N09140 1982 60 WP MM FAYE 1982-08-25 00:00:00 TS 17.1400 120.140 60 980 tokyo main 33 21 OOOO______O___ jtwc_wp WP151982 17.2000 120.200 65 1 17.0000 119.900 4 60 980 9 60 60 9 125 125 0 17.2000 120.300 3 48 976 17.1000 120.100 STS 60 980 17.2000 120.200 4 65 12 5
1982227N09140 1982 60 WP MM FAYE 1982-08-25 03:00:00 TS 17.6947 120.081 main 23 23 PPPP______P___ WP151982 17.7376 120.023 60 0 17.5300 119.900 4 57 982 9 55 55 9 125 125 17.8024 120.253 3 43 980 17.6800 120.080 STS 55 982 17.7234 120.147 4 61 11 351
1982227N09140 1982 60 WP MM FAYE 1982-08-25 06:00:00 TS 18.1825 119.969 55 985 tokyo main 54 54 OOOO______P___ jtwc_wp WP151982 18.2000 119.800 55 0 18.0000 119.900 4 55 985 9 50 50 9 125 125 0 18.3000 120.100 2 38 985 18.2000 120.000 STS 50 985 18.2124 120.044 4 57 9 352
1982227N09140 1982 60 WP MM FAYE 1982-08-25 09:00:00 TS 18.6020 119.943 main 77 77 PPPP______P___ WP151982 18.6449 119.797 52 0 18.4375 119.985 4 47 987 9 9 125 125 18.6375 120.020 2 38 986 18.6450 119.970 STS 50 985 18.6452 119.944 4 53 8 2
1982227N09140 1982 60 WP MM FAYE 1982-08-25 12:00:00 TS 18.9400 119.980 40 990 tokyo main 84 84 OOOO______O___ jtwc_wp WP151982 19.0000 119.900 50 0 18.8000 120.100 3 40 990 0 9 125 125 0 18.9000 120.000 2 38 988 19.0000 120.000 STS 50 985 19.0000 119.900 2 50 6 12
1982227N09140 1982 60 WP MM FAYE 1982-08-25 15:00:00 TS 19.2068 120.076 main 99 99 PPPP______P___ WP151982 19.2375 120.035 50 0 19.0725 120.193 3 45 987 0 9 107 107 19.2150 120.070 2 38 989 19.2875 120.127 STS 50 985 19.2213 119.953 2 48 5 25
1982227N09140 1982 60 WP MM FAYE 1982-08-25 18:00:00 TS 19.4144 120.215 50 985 tokyo main 109 109 OOOO______P___ jtwc_wp WP151982 19.4000 120.200 50 0 19.3000 120.300 4 50 985 9 20 20 9 90 90 0 19.5000 120.200 2 38 990 19.5000 120.300 STS 50 985 19.3721 120.073 2 47 5 34
1982227N09140 1982 60 WP MM FAYE 1982-08-25 21:00:00 TS 19.5803 120.343 main 123 119 PPPP______P___ WP151982 19.5273 120.313 47 0 19.5274 120.413 4 50 985 9 9 90 90 19.6999 120.305 2 38 990 19.6349 120.428 STS 50 986 19.5119 120.257 2 46 5 40
1982227N09140 1982 60 WP MM FAYE 1982-08-26 00:00:00 TS 19.7800 120.540 50 985 tokyo main 137 135 OOOO______O___ jtwc_wp WP151982 19.7000 120.500 45 0 19.8000 120.600 4 50 985 0 9 90 90 0 19.9000 120.500 2 38 990 19.8000 120.600 STS 50 987 19.7000 120.500 2 45 7 42
1982227N09140 1982 60 WP MM FAYE 1982-08-26 03:00:00 TS 20.1159 120.861 main 167 159 PPPP______P___ WP151982 20.0127 120.877 42 0 20.2001 120.920 4 47 988 0 9 90 90 20.1852 120.877 2 38 992 20.1275 120.870 STS 47 988 20.0538 120.763 2 43 10 43
1982227N09140 1982 60 WP MM FAYE 1982-08-26 06:00:00 TS 20.4914 121.237 45 992 tokyo main 159 137 OOOO______P___ jtwc_wp WP151982 20.4000 121.300 40 0 20.6000 121.300 3 45 992 0 9 90 90 0 20.5000 121.300 2 38 994 20.5000 121.200 TS 45 990 20.4571 121.086 2 42 10 42
1982227N09140 1982 60 WP MM FAYE 1982-08-26 09:00:00 TS 20.8406 121.558 main 142 129 PPPP______P___ WP151982 20.8297 121.585 40 0 20.8873 121.628 3 40 994 0 9 70 70 20.8146 121.578 2 38 996 20.8149 121.535 TS 42 993 20.8568 121.466 2 41 9 45
1982227N09140 1982 60 WP MM FAYE 1982-08-26 12:00:00 TS 21.1400 121.920 35 996 tokyo main 136 129 OOOO______O___ jtwc_wp WP151982 21.2000 121.900 40 0 21.1000 122.000 3 35 996 0 9 50 50 0 21.1000 121.900 2 38 998 21.1000 121.900 TS 40 997 21.2000 121.900 2 40 9 57
1982227N09140 1982 60 WP MM FAYE 1982-08-26 15:00:00 TS 21.3447 122.381 main 168 164 PPPP______P___ WP151982 21.3875 122.363 37 0 21.2575 122.478 3 35 997 0 9 50 50 21.3227 122.420 2 33 998 21.3572 122.263 TS 37 997 21.3987 122.380 2 37 10 68
1982227N09140 1982 60 WP MM FAYE 1982-08-26 18:00:00 TS 21.5076 122.901 35 998 tokyo main 211 211 OOOO______P___ jtwc_wp WP151982 21.5000 122.900 35 0 21.4000 123.000 3 35 998 0 9 50 50 0 21.5000 123.000 1 29 998 21.6000 122.700 TS 35 998 21.5378 122.907 2 35 10 72
1982227N09140 1982 60 WP MM FAYE 1982-08-26 21:00:00 TS 21.6695 123.431 main 258 258 PPPP______P___ WP151982 21.6275 123.450 32 -1 21.5847 123.485 3 999 0 9 21.6271 123.486 1 29 998 21.8502 123.278 TS 35 998 21.6580 123.455 2 32 11 71
1982227N09140 1982 60 WP MM FAYE 1982-08-27 00:00:00 TS 21.8600 123.980 1000 tokyo main 298 298 OOOO______O___ jtwc_wp WP151982 21.8000 124.000 30 -1 21.8000 124.000 2 1000 0 0 0 21.8000 124.000 1 29 998 22.1000 123.900 TS 35 998 21.8000 124.000 1 30 11 65
1982227N09140 1982 60 WP MM FAYE 1982-08-27 03:00:00 TS 22.1301 124.515 main 337 337 PPPP______P___ WP151982 22.0923 124.507 27 -1 22.0423 124.570 2 1000 0 0 22.1271 124.597 1 29 998 22.3571 124.443 TS 32 999 22.0317 124.459 1 30 12 61
1982227N09140 1982 60 WP MM FAYE 1982-08-27 06:00:00 TS 22.4180 125.084 1000 tokyo main 387 387 OOOO______P___ jtwc_wp WP151982 22.4000 125.000 25 -1 22.3000 125.200 2 1000 0 0 0 22.5000 125.300 1 29 998 22.6000 125.000 TD 30 1000 22.2898 124.918 1 30 12 64
1982227N09140 1982 60 WP MM FAYE 1982-08-27 09:00:00 TS 22.6741 125.713 main 436 436 PPPP______P___ WP151982 22.6295 125.470 27 -1 22.5574 125.885 2 1000 0 0 22.8232 126.172 1 26 1000 22.8072 125.620 TD 27 1000 22.5531 125.418 1 30 13 68
1982227N09140 1982 60 WP MM FAYE 1982-08-27 12:00:00 TS 22.9000 126.380 1000 tokyo main 491 491 OOOO______O___ jtwc_wp WP151982 22.8000 126.000 30 -1 22.8000 126.600 2 1000 0 0 0 23.1000 127.000 1 23 1002 23.0000 126.300 TD 25 1001 22.8000 126.000 1 30 13 72
1982227N09140 1982 60 WP MM FAYE 1982-08-27 15:00:00 TS 23.0807 127.046 main 541 541 PPPP______P___ WP151982 22.8921 126.641 30 -1 22.9996 127.293 2 1000 0 0 23.3063 127.516 1 23 1002 23.2072 127.028 TD 25 1001 22.9984 126.750 1 31 13 74
1982227N09140 1982 60 WP MM FAYE 1982-08-27 18:00:00 TS 23.2550 127.756 1000 tokyo main 614 614 OOOO______P___ jtwc_wp WP151982 23.0000 127.400 30 -1 23.2000 128.000 2 1000 0 0 0 23.5000 128.000 1 23 1002 23.4000 127.800 TD 25 1001 23.1751 127.578 1 32 15 74
1982227N09140 1982 60 WP MM FAYE 1982-08-27 21:00:00 TS 23.4695 128.566 main 689 689 PPPP______P___ WP151982 23.2204 128.300 32 -1 23.4651 128.772 2 999 0 0 23.7653 128.727 1 26 998 23.5575 128.615 TD 27 1000 23.3390 128.416 1 33 15 74
1982227N09140 1982 60 WP MM FAYE 1982-08-28 00:00:00 TS 23.6800 129.360 35 998 tokyo main 763 763 OOOO______O___ jtwc_wp WP151982 23.5000 129.200 35 0 23.7000 129.500 3 35 998 0 9 75 75 0 24.0000 129.500 1 29 995 23.7000 129.400 TD 30 1000 23.5000 129.200 2 35 14 74
1982227N09140 1982 60 WP MM FAYE 1982-08-28 03:00:00 TS 23.8706 130.060 main 795 781 PPPP______P___ WP151982 23.8297 129.967 42 0 23.8297 130.110 3 35 996 0 9 87 87 24.1375 130.210 1 33 995 23.8573 130.110 TD 35 997 23.6986 129.900 2 42 12 74
1982227N09140 1982 60 WP MM FAYE 1982-08-28 06:00:00 TS 24.0189 130.646 35 994 tokyo main 781 770 OOOO______P___ jtwc_wp WP151982 24.1000 130.600 50 0 23.9000 130.600 3 35 994 0 9 100 100 0 24.2000 130.800 2 38 995 24.0000 130.700 TS 40 995 23.8943 130.529 2 50 10 76
1982227N09140 1982 60 WP MM FAYE 1982-08-28 09:00:00 TS 24.1128 131.113 main 771 762 PPPP______P___ WP151982 24.1947 131.126 57 0 23.9573 130.995 3 37 992 0 9 112 112 24.2221 131.210 2 43 990 24.1222 131.168 TS 52 985 24.0678 131.069 2 57 8 79
1982227N09140 1982 60 WP MM FAYE 1982-08-28 12:00:00 TS 24.1600 131.460 40 990 tokyo main 763 763 OOOO______O___ jtwc_wp WP151982 24.2000 131.500 65 1 24.0000 131.300 3 40 990 0 9 125 125 0 24.2000 131.500 3 48 985 24.2000 131.500 T 65 975 24.2000 131.500 4 65 6 84
1982227N09140 1982 60 WP MM FAYE 1982-08-28 15:00:00 TS 24.1726 131.738 main 765 765 PPPP______P___ WP151982 24.1998 131.738 67 1 24.0499 131.573 3 42 987 0 9 112 112 24.1275 131.788 3 48 982 24.2149 131.745 T 65 975 24.2710 131.845 4 66 4 87
1982227N09140 1982 60 WP MM FAYE 1982-08-28 18:00:00 TS 24.1802 131.936 45 985 tokyo main 768 768 OOOO______P___ jtwc_wp WP151982 24.2000 131.900 70 1 24.1000 131.800 3 45 985 0 9 100 100 0 24.1000 132.000 3 48 980 24.2000 131.900 T 65 975 24.3012 132.081 4 67 3 81
1982227N09140 1982 60 WP MM FAYE 1982-08-28 21:00:00 TS 24.2282 132.109 main 771 762 PPPP______P___ WP151982 24.2350 132.122 70 1 24.1650 132.037 3 50 982 0 9 80 80 24.2274 132.130 3 53 980 24.2075 132.030 T 62 977 24.3058 132.226 4 68 3 69
1982227N09140 1982 60 WP MM FAYE 1982-08-29 00:00:00 TS 24.2800 132.220 55 980 tokyo main 762 762 OOOO______O___ jtwc_wp WP151982 24.3000 132.300 70 1 24.2000 132.200 4 55 980 9 30 30 9 60 60 0 24.4000 132.200 3 58 980 24.2000 132.100 STS 60 980 24.3000 132.300 4 70 2 57
1982227N09140 1982 60 WP MM FAYE 1982-08-29 03:00:00 TS 24.3236 132.274 main 764 764 PPPP______P___ WP151982 24.4224 132.395 70 1 24.1650 132.238 4 55 980 9 30 30 9 60 60 24.5375 132.273 3 58 980 24.1575 132.115 STS 60 980 24.3354 132.348 4 70 1 41
1982227N09140 1982 60 WP MM FAYE 1982-08-29 06:00:00 TS 24.3320 132.267 55 980 tokyo main 764 762 OOOO______P___ jtwc_wp WP151982 24.5000 132.400 70 1 24.1000 132.200 4 55 980 9 30 30 9 60 60 0 24.6000 132.300 3 58 980 24.1000 132.100 STS 60 980 24.3598 132.333 4 70 1 230
1982227N09140 1982 60 WP MM FAYE 1982-08-29 09:00:00 TS 24.2874 132.221 main 762 762 PPPP______P___ WP151982 24.4375 132.315 70 1 24.0575 132.158 4 55 982 9 30 30 9 60 60 24.5375 132.257 3 53 981 24.0500 132.100 STS 60 980 24.3543 132.276 4 70 2 216
1982227N09140 1982 60 WP MM FAYE 1982-08-29 12:00:00 TS 24.2000 132.160 55 985 tokyo main 773 771 OOOO______O___ jtwc_wp WP151982 24.3000 132.200 70 1 24.0000 132.100 4 55 985 9 30 30 9 60 60 0 24.4000 132.200 3 48 983 24.0000 132.100 STS 60 980 24.3000 132.200 4 70 2 204
1982227N09140 1982 60 WP MM FAYE 1982-08-29 15:00:00 TS 24.0963 132.126 main 782 782 PPPP______P___ WP151982 24.1650 132.150 65 1 23.9150 132.042 4 55 985 9 30 30 9 60 60 24.2650 132.200 3 48 985 23.9650 132.108 STS 55 982 24.1713 132.131 4 65 3 196
1982227N09140 1982 60 WP MM FAYE 1982-08-29 18:00:00 TS 23.9590 132.090 55 985 tokyo main 793 793 OOOO______P___ jtwc_wp WP151982 24.0000 132.100 60 0 23.8000 132.000 4 55 985 9 30 30 9 60 60 0 24.1000 132.200 3 48 988 23.9000 132.100 STS 50 985 23.9951 132.050 4 60 3 194
1982227N09140 1982 60 WP MM FAYE 1982-08-29 21:00:00 TS 23.7838 132.037 main 814 814 PPPP______P___ WP151982 23.8000 132.000 55 0 23.6500 131.993 4 50 987 9 9 55 55 23.9075 132.165 3 48 990 23.7650 132.057 STS 47 987 23.7963 131.969 4 55 4 195
1982227N09140 1982 60 WP MM FAYE 1982-08-30 00:00:00 TS 23.6000 131.980 45 990 tokyo main 836 836 OOOO______O___ jtwc_wp WP151982 23.6000 131.900 50 0 23.5000 132.000 3 45 990 0 9 50 50 0 23.7000 132.100 3 48 992 23.6000 132.000 TS 45 990 23.6000 131.900 2 50 4 196
1982227N09140 1982 60 WP MM FAYE 1982-08-30 03:00:00 TS 23.4393 131.927 main 856 856 PPPP______P___ WP151982 23.4425 131.835 47 0 23.4000 132.015 3 42 991 0 9 50 50 23.4850 131.992 3 43 993 23.4425 131.935 TS 42 992 23.4265 131.857 2 47 3 195
1982227N09140 1982 60 WP MM FAYE 1982-08-30 06:00:00 TS 23.2925 131.886 40 992 tokyo main 868 868 OOOO______P___ jtwc_wp WP151982 23.3000 131.800 45 0 23.3000 132.000 3 40 992 0 9 50 50 0 23.3000 131.900 2 38 995 23.3000 131.900 TS 40 995 23.2625 131.828 2 45 3 190
1982227N09140 1982 60 WP MM FAYE 1982-08-30 09:00:00 TS 23.1529 131.860 main 879 879 PPPP______P___ WP151982 23.1275 131.778 42 0 23.1500 131.892 3 40 994 0 9 50 50 23.1775 131.878 2 38 995 23.1925 131.943 TS 40 996 23.1172 131.810 2 42 3 185
1982227N09140 1982 60 WP MM FAYE 1982-08-30 12:00:00 TS 23.0400 131.860 40 996 tokyo main 901 901 OOOO______O___ jtwc_wp WP151982 23.0000 131.800 40 0 23.0000 131.800 3 40 996 0 9 50 50 0 23.1000 131.900 2 38 995 23.1000 132.000 TS 40 997 23.0000 131.800 2 40 2 163
1982227N09140 1982 60 WP MM FAYE 1982-08-30 15:00:00 TS 22.9635 131.913 main 901 901 PPPP______P___ WP151982 22.9925 131.915 40 0 22.8775 131.850 3 40 996 0 9 50 50 23.0500 131.965 2 38 995 22.9925 132.015 TS 40 997 22.9049 131.821 2 38 2 149
1982227N09140 1982 60 WP MM FAYE 1982-08-30 18:00:00 TS 22.9080 131.949 40 996 tokyo main 912 912 OOOO______P___ jtwc_wp WP151982 23.0000 132.000 40 0 22.8000 131.900 3 40 996 0 9 50 50 0 23.0000 132.000 2 38 995 22.9000 132.000 TS 40 997 22.8399 131.845 2 37 1 191
1982227N09140 1982 60 WP MM FAYE 1982-08-30 21:00:00 TS 22.8345 131.897 main 923 922 PPPP______P___ WP151982 22.8925 131.930 37 0 22.7775 131.815 3 40 996 0 9 50 50 22.8775 131.922 2 38 995 22.8200 131.972 TS 40 997 22.8049 131.846 2 36 2 231
1982227N09140 1982 60 WP MM FAYE 1982-08-31 00:00:00 TS 22.8000 131.800 40 996 tokyo main 922 909 OOOO______O___ jtwc_wp WP151982 22.8000 131.800 35 0 22.8000 131.700 3 40 996 0 9 50 50 0 22.8000 131.800 2 38 996 22.8000 131.900 TS 40 997 22.8000 131.800 2 35 2 277
1982227N09140 1982 60 WP MM FAYE 1982-08-31 03:00:00 TS 22.8553 131.718 main 909 908 PPPP______P___ WP151982 22.8274 131.723 32 -1 22.8424 131.665 3 40 996 0 9 50 50 22.8849 131.723 2 38 997 22.8925 131.773 TS 37 998 22.8291 131.708 2 33 2 306
1982227N09140 1982 60 WP MM FAYE 1982-08-31 06:00:00 TS 22.9369 131.593 40 996 tokyo main 908 896 OOOO______P___ jtwc_wp WP151982 22.9000 131.600 30 -1 22.9000 131.600 3 40 996 0 9 50 50 0 23.0000 131.600 2 38 998 23.0000 131.600 TS 35 999 22.8846 131.563 2 32 3 293
1982227N09140 1982 60 WP MM FAYE 1982-08-31 09:00:00 TS 22.9785 131.402 main 896 894 PPPP______P___ WP151982 22.9575 131.380 30 -1 22.9574 131.453 3 998 0 9 23.0150 131.387 2 33 998 23.0149 131.430 TS 32 999 22.9477 131.361 2 31 4 279
1982227N09140 1982 60 WP MM FAYE 1982-08-31 12:00:00 TS 23.0000 131.140 1000 tokyo main 894 893 OOOO______O___ jtwc_wp WP151982 23.0000 131.100 30 -1 23.0000 131.200 2 1000 0 0 0 23.0000 131.100 1 29 998 23.0000 131.200 TD 30 999 23.0000 131.100 1 30 5 273
1982227N09140 1982 60 WP MM FAYE 1982-08-31 15:00:00 TS 23.0075 130.823 main 893 890 PPPP______P___ WP151982 23.0073 130.830 27 -1 23.0075 130.837 2 1000 0 0 23.0000 130.765 1 29 998 22.9999 130.887 TD 30 999 23.0225 130.795 1 28 6 271
1982227N09140 1982 60 WP MM FAYE 1982-08-31 18:00:00 TS 23.0060 130.447 1000 tokyo main 880 850 OOOO______P___ jtwc_wp WP151982 23.0000 130.500 25 -1 23.0000 130.400 2 1000 0 0 0 23.0000 130.400 1 29 998 23.0000 130.500 TD 30 999 23.0300 130.433 1 27 7 270
1982227N09140 1982 60 WP MM FAYE 1982-08-31 21:00:00 TS 23.0104 130.036 main 840 800 PPPP______P___ WP151982 23.0075 130.073 25 -1 23.0000 129.950 2 1000 0 0 23.0148 130.065 1 26 999 23.0075 130.065 TD 27 999 23.0224 130.029 1 26 8 270
1982227N09140 1982 60 WP MM FAYE 1982-09-01 00:00:00 TS 23.0000 129.600 1000 tokyo main 800 761 OOOO______O___ jtwc_wp WP151982 23.0000 129.600 25 -1 23.0000 129.500 2 1000 0 0 0 23.0000 129.700 1 23 1000 23.0000 129.600 TD 25 1000 23.0000 129.600 1 25 8 266
1982227N09140 1982 60 WP MM FAYE 1982-09-01 03:00:00 TS 22.9495 129.164 main 763 724 PPPP______P___ WP151982 22.9574 129.150 22 -1 22.9999 129.085 2 1000 0 0 22.8926 129.257 1 23 1000 22.9499 129.142 TD 25 1000 22.9478 129.183 1 23 8 263
1982227N09140 1982 60 WP MM FAYE 1982-09-01 06:00:00 TS 22.8969 128.729 1000 tokyo main 714 675 OOOO______P___ jtwc_wp WP151982 22.9000 128.700 20 -1 23.0000 128.700 2 1000 0 0 0 22.8000 128.800 1 23 1000 22.9000 128.700 TD 25 1000 22.8844 128.744 1 22 8 265
1982227N09140 1982 60 WP MM FAYE 1982-09-01 09:00:00 TS 22.8766 128.324 main 675 636 PPPP______P___ WP151982 22.8273 128.257 20 -1 22.9997 128.365 2 1000 0 0 22.8347 128.408 1 23 1000 22.8922 128.308 TD 25 1000 22.8289 128.283 1 21 8 269
1982227N09140 1982 60 WP MM FAYE 1982-09-01 12:00:00 TS 22.8800 127.900 1000 tokyo main 636 587 OOOO______O___ jtwc_wp WP151982 22.8000 127.800 20 -1 23.0000 128.000 2 1000 0 0 0 22.9000 128.000 1 23 1000 22.9000 127.900 TD 25 1000 22.8000 127.800 1 20 8 272
1982227N09140 1982 60 WP MM FAYE 1982-09-01 15:00:00 TS 22.9083 127.416 main 587 539 PPPP______P___ WP151982 22.8923 127.315 22 -1 23.0000 127.522 2 1000 0 0 22.9000 127.515 1 23 1000 22.8999 127.423 TD 25 1000 22.8493 127.306 1 21 9 274
1982227N09140 1982 60 WP MM FAYE 1982-09-01 18:00:00 TS 22.9444 126.898 1000 tokyo main 539 487 OOOO______P___ jtwc_wp WP151982 23.0000 126.800 25 -1 23.0000 127.000 2 1000 0 0 0 22.9000 127.000 1 23 1000 22.9000 126.900 TD 25 1000 22.9219 126.789 1 22 9 275
1982227N09140 1982 60 WP MM FAYE 1982-09-01 21:00:00 TS 22.9874 126.389 main 487 440 PPPP______P___ WP151982 23.0299 126.258 25 -1 23.0369 126.538 2 1000 0 0 22.9871 126.523 1 23 1000 22.8997 126.372 TD 25 1000 22.9836 126.253 1 23 10 272
1982227N09140 1982 60 WP MM FAYE 1982-09-02 00:00:00 TS 22.9800 125.840 1000 tokyo main 430 380 OOOO______O___ jtwc_wp WP151982 23.0000 125.700 25 -1 23.0000 126.000 2 1000 0 0 0 23.0000 126.000 1 23 1000 22.9000 125.800 TD 25 1000 23.0000 125.700 1 25 11 264
1982227N09140 1982 60 WP MM FAYE 1982-09-02 03:00:00 TS 22.8663 125.211 main 380 330 PPPP______P___ WP151982 22.9222 125.158 25 -1 22.7506 125.249 2 1000 0 0 22.7802 125.357 1 23 1000 22.9376 125.150 TD 25 1000 22.9412 125.139 1 26 12 257
1982227N09140 1982 60 WP MM FAYE 1982-09-02 06:00:00 TS 22.7064 124.573 1000 tokyo main 330 272 OOOO______P___ jtwc_wp WP151982 22.8000 124.600 25 -1 22.5000 124.500 2 1000 0 0 0 22.5000 124.700 1 23 1000 22.9000 124.500 TD 25 1000 22.8320 124.565 1 27 12 255
1982227N09140 1982 60 WP MM FAYE 1982-09-02 09:00:00 TS 22.5752 123.991 main 272 229 PPPP______P___ WP151982 22.6649 124.008 27 -1 22.5146 123.949 2 1000 0 0 22.3274 124.113 1 23 1001 22.6874 123.905 TD 25 1000 22.6817 123.983 1 28 11 254
1982227N09140 1982 60 WP MM FAYE 1982-09-02 12:00:00 TS 22.4200 123.460 1000 tokyo main 229 192 OOOO______O___ jtwc_wp WP151982 22.5000 123.400 30 -1 22.5000 123.500 2 1000 0 0 0 22.2000 123.600 1 23 1002 22.4000 123.400 TD 25 1000 22.5000 123.400 1 30 10 249
1982227N09140 1982 60 WP MM FAYE 1982-09-02 15:00:00 TS 22.2154 122.981 main 192 174 PPPP______P___ WP151982 22.3149 122.793 30 -1 22.2098 123.077 2 1001 0 0 22.1146 123.193 1 23 1002 22.1422 123.020 TD 27 1000 22.2955 122.820 1 28 10 242
1982227N09140 1982 60 WP MM FAYE 1982-09-02 18:00:00 TS 21.9696 122.544 1002 tokyo main 164 125 OOOO______P___ jtwc_wp WP151982 22.1000 122.200 30 -1 21.8000 122.700 2 1002 0 0 0 22.0000 122.800 1 23 1002 21.9000 122.700 TD 30 1000 22.0740 122.244 1 27 10 238
1982227N09140 1982 60 WP MM FAYE 1982-09-02 21:00:00 TS 21.7032 122.113 main 125 99 PPPP______P___ WP151982 21.8721 121.658 27 -1 21.3850 122.327 2 1003 0 0 21.7873 122.330 1 23 1002 21.6999 122.358 TD 30 1000 21.8405 121.671 1 26 10 235
1982227N09140 1982 60 WP MM FAYE 1982-09-03 00:00:00 TS 21.4267 121.707 1004 tokyo main 99 91 OOOO______O___ jtwc_wp WP151982 21.6000 121.100 25 -1 21.0000 122.000 2 1004 0 0 0 21.5000 121.800 1 23 1002 21.5000 122.000 TD 30 1000 21.6000 121.100 1 25 9 232
1982227N09140 1982 60 WP MM FAYE 1982-09-03 03:00:00 TS 21.1381 121.333 main 98 94 PPPP__________ WP151982 21.2682 120.472 22 -1 20.7175 121.733 2 1004 0 0 21.1792 121.268 1 21 1002 21.2423 121.630 TD 27 1000 1 10 234
1982227N09140 1982 60 WP MM FAYE 1982-09-03 06:00:00 TS 20.8667 120.878 1004 tokyo main 111 111 OOOO__________ jtwc_wp WP151982 20.9000 119.800 20 -1 20.5000 121.500 2 1004 0 0 0 20.8000 120.600 0 19 1003 21.0000 121.200 TD 25 1000 1 10 243
1982227N09140 1982 60 WP MM FAYE 1982-09-03 09:00:00 TS 20.6639 120.353 main 137 137 __PP__________ WP151982 -1 2 0 0 20.3666 119.714 0 19 1003 20.8125 120.672 TD 25 1000 1 11 251
1982227N09140 1982 60 WP MM FAYE 1982-09-03 12:00:00 TS 20.5000 119.750 main 182 176 __OO__________ -1 19.9000 118.700 0 19 1004 20.7000 120.100 TD 25 1001 8 271
1982227N09140 1982 60 WP MM FAYE 1982-09-03 15:00:00 NR 20.6752 119.543 main 182 182 ___P__________ -1 0 20.6752 119.543 TD 25 1001 7 286
1982227N09140 1982 60 WP MM FAYE 1982-09-03 18:00:00 NR 20.7000 119.000 main 221 ___O__________ -1 20.7000 119.000 TD 25 1002 10 273

デジタル台風データ・検索

IBTrACS Databaseについて

本データベースは、米国NOAAが公開する1842年以降の世界の熱帯低気圧のベストトラックデータアーカイブInternational Best Track Archive for Climate Stewardship (IBTrACS)を、ウェブで閲覧しやすい形式に変換したものです。

最終更新日:2021-12-08